Terminal Aerodrome Forecast
Issued by NWS

Home | Current Version | Previous Version | Text Only | Print | Product List | Glossary Off
Versions: 1 2 3 4 5 6 7 8 9 10 11 12 13 14 15 16 17 18 19 20 21 22 23 24 25

000
FTUS43 KGRB 202300
TAFATW
TAF
KATW 202337Z 2100/2124 05004KT P6SM SCT030
     FM210500 11004KT 4SM BR SCT035 BKN200
      TEMPO 2109/2113 1 1/2SM BR SCT002
     FM211400 13007KT P6SM VCSH SCT035 BKN090
      TEMPO 2120/2124 2SM TSRA BKN020CB OVC035=

USA.gov is the U.S. government's official web portal to all federal, state and local government web resources and services.